sensor_id;sensor_type;location;lat;lon;timestamp;P1;durP1;ratioP1;P2;durP2;ratioP2
5058;SDS011;2548;52.050;11.036;2024-03-23T00:51:46;14.68;;;8.30;;
5058;SDS011;2548;52.050;11.036;2024-03-23T00:54:14;11.90;;;7.70;;
5058;SDS011;2548;52.050;11.036;2024-03-23T00:56:40;16.90;;;8.50;;
5058;SDS011;2548;52.050;11.036;2024-03-23T00:59:07;18.80;;;9.85;;
5058;SDS011;2548;52.050;11.036;2024-03-23T01:01:34;14.90;;;8.80;;
5058;SDS011;2548;52.050;11.036;2024-03-23T01:04:01;16.20;;;9.20;;
5058;SDS011;2548;52.050;11.036;2024-03-23T01:06:28;16.95;;;9.48;;
5058;SDS011;2548;52.050;11.036;2024-03-23T01:08:57;13.48;;;8.25;;
5058;SDS011;2548;52.050;11.036;2024-03-23T01:11:24;13.80;;;8.10;;
5058;SDS011;2548;52.050;11.036;2024-03-23T01:13:53;14.63;;;7.95;;
5058;SDS011;2548;52.050;11.036;2024-03-23T01:16:22;16.73;;;8.82;;
5058;SDS011;2548;52.050;11.036;2024-03-23T01:18:49;16.38;;;9.02;;
5058;SDS011;2548;52.050;11.036;2024-03-23T01:21:15;18.08;;;8.15;;
5058;SDS011;2548;52.050;11.036;2024-03-23T01:23:43;13.13;;;8.18;;
5058;SDS011;2548;52.050;11.036;2024-03-23T01:26:12;21.05;;;8.63;;
5058;SDS011;2548;52.050;11.036;2024-03-23T01:28:39;24.33;;;9.40;;
5058;SDS011;2548;52.050;11.036;2024-03-23T01:31:05;19.42;;;9.32;;
5058;SDS011;2548;52.050;11.036;2024-03-23T01:33:33;14.93;;;8.20;;
5058;SDS011;2548;52.050;11.036;2024-03-23T01:35:59;14.90;;;8.25;;
5058;SDS011;2548;52.050;11.036;2024-03-23T01:38:27;16.10;;;8.18;;
5058;SDS011;2548;52.050;11.036;2024-03-23T01:40:56;17.15;;;8.25;;
5058;SDS011;2548;52.050;11.036;2024-03-23T01:43:25;24.48;;;9.82;;
5058;SDS011;2548;52.050;11.036;2024-03-23T01:45:52;22.25;;;9.32;;
5058;SDS011;2548;52.050;11.036;2024-03-23T01:48:20;13.45;;;8.00;;
5058;SDS011;2548;52.050;11.036;2024-03-23T01:50:46;17.08;;;8.85;;
5058;SDS011;2548;52.050;11.036;2024-03-23T01:53:14;16.52;;;8.93;;
5058;SDS011;2548;52.050;11.036;2024-03-23T01:55:43;22.88;;;8.93;;
5058;SDS011;2548;52.050;11.036;2024-03-23T01:58:10;28.65;;;10.20;;
5058;SDS011;2548;52.050;11.036;2024-03-23T02:00:38;21.10;;;10.35;;
5058;SDS011;2548;52.050;11.036;2024-03-23T02:05:48;7.10;;;5.45;;
5058;SDS011;2548;52.050;11.036;2024-03-23T02:08:16;15.02;;;4.80;;
5058;SDS011;2548;52.050;11.036;2024-03-23T02:10:43;13.75;;;5.60;;
5058;SDS011;2548;52.050;11.036;2024-03-23T02:13:11;14.52;;;5.70;;
5058;SDS011;2548;52.050;11.036;2024-03-23T02:15:40;14.48;;;5.07;;
5058;SDS011;2548;52.050;11.036;2024-03-23T02:18:07;7.78;;;4.40;;
5058;SDS011;2548;52.050;11.036;2024-03-23T02:20:34;9.32;;;5.00;;
5058;SDS011;2548;52.050;11.036;2024-03-23T02:23:03;12.95;;;5.00;;
5058;SDS011;2548;52.050;11.036;2024-03-23T02:25:31;13.13;;;5.35;;
5058;SDS011;2548;52.050;11.036;2024-03-23T02:27:59;14.15;;;4.15;;
5058;SDS011;2548;52.050;11.036;2024-03-23T02:30:25;14.68;;;4.75;;
5058;SDS011;2548;52.050;11.036;2024-03-23T02:32:53;6.22;;;5.10;;
5058;SDS011;2548;52.050;11.036;2024-03-23T02:35:19;8.82;;;3.88;;
5058;SDS011;2548;52.050;11.036;2024-03-23T02:37:47;12.63;;;4.47;;
5058;SDS011;2548;52.050;11.036;2024-03-23T02:40:15;8.30;;;4.15;;
5058;SDS011;2548;52.050;11.036;2024-03-23T02:42:43;6.22;;;3.78;;
5058;SDS011;2548;52.050;11.036;2024-03-23T02:45:10;11.40;;;4.47;;
5058;SDS011;2548;52.050;11.036;2024-03-23T02:47:37;8.88;;;4.43;;
5058;SDS011;2548;52.050;11.036;2024-03-23T02:50:04;8.00;;;4.05;;
5058;SDS011;2548;52.050;11.036;2024-03-23T02:52:32;9.85;;;5.15;;
5058;SDS011;2548;52.050;11.036;2024-03-23T02:54:58;6.88;;;4.15;;
5058;SDS011;2548;52.050;11.036;2024-03-23T02:57:28;11.13;;;4.95;;
5058;SDS011;2548;52.050;11.036;2024-03-23T02:59:55;12.10;;;5.05;;
5058;SDS011;2548;52.050;11.036;2024-03-23T03:02:22;18.10;;;5.43;;
5058;SDS011;2548;52.050;11.036;2024-03-23T03:04:49;10.75;;;5.30;;
5058;SDS011;2548;52.050;11.036;2024-03-23T03:07:16;13.80;;;5.53;;
5058;SDS011;2548;52.050;11.036;2024-03-23T03:09:43;9.93;;;5.60;;
5058;SDS011;2548;52.050;11.036;2024-03-23T03:12:10;10.65;;;5.88;;
5058;SDS011;2548;52.050;11.036;2024-03-23T03:14:38;13.15;;;5.55;;
5058;SDS011;2548;52.050;11.036;2024-03-23T03:17:05;10.93;;;4.13;;
5058;SDS011;2548;52.050;11.036;2024-03-23T03:19:32;13.05;;;4.43;;
5058;SDS011;2548;52.050;11.036;2024-03-23T03:21:59;12.38;;;4.47;;
5058;SDS011;2548;52.050;11.036;2024-03-23T03:24:26;20.75;;;5.55;;
5058;SDS011;2548;52.050;11.036;2024-03-23T03:26:53;14.45;;;4.10;;
5058;SDS011;2548;52.050;11.036;2024-03-23T03:29:20;10.25;;;4.38;;
5058;SDS011;2548;52.050;11.036;2024-03-23T03:31:48;10.50;;;3.67;;
5058;SDS011;2548;52.050;11.036;2024-03-23T03:34:15;12.43;;;4.38;;
5058;SDS011;2548;52.050;11.036;2024-03-23T03:36:43;9.20;;;3.65;;
5058;SDS011;2548;52.050;11.036;2024-03-23T03:39:09;9.73;;;3.65;;
5058;SDS011;2548;52.050;11.036;2024-03-23T03:41:38;12.43;;;4.40;;
5058;SDS011;2548;52.050;11.036;2024-03-23T03:44:04;8.00;;;3.63;;
5058;SDS011;2548;52.050;11.036;2024-03-23T03:46:32;17.60;;;3.95;;
5058;SDS011;2548;52.050;11.036;2024-03-23T03:49:00;9.95;;;4.60;;
5058;SDS011;2548;52.050;11.036;2024-03-23T03:51:27;15.85;;;4.03;;
5058;SDS011;2548;52.050;11.036;2024-03-23T03:53:54;15.07;;;4.10;;
5058;SDS011;2548;52.050;11.036;2024-03-23T03:56:21;9.13;;;4.22;;
5058;SDS011;2548;52.050;11.036;2024-03-23T03:58:48;16.98;;;4.75;;
5058;SDS011;2548;52.050;11.036;2024-03-23T04:01:15;11.57;;;3.88;;
5058;SDS011;2548;52.050;11.036;2024-03-23T04:03:42;19.10;;;4.35;;
5058;SDS011;2548;52.050;11.036;2024-03-23T04:06:11;10.90;;;4.32;;
5058;SDS011;2548;52.050;11.036;2024-03-23T04:08:41;9.23;;;4.28;;
5058;SDS011;2548;52.050;11.036;2024-03-23T04:11:08;7.10;;;3.78;;
5058;SDS011;2548;52.050;11.036;2024-03-23T04:13:34;10.38;;;3.90;;
5058;SDS011;2548;52.050;11.036;2024-03-23T04:16:02;9.63;;;3.70;;
5058;SDS011;2548;52.050;11.036;2024-03-23T04:18:29;17.05;;;3.63;;
5058;SDS011;2548;52.050;11.036;2024-03-23T04:20:56;5.65;;;3.45;;
5058;SDS011;2548;52.050;11.036;2024-03-23T04:23:24;9.20;;;4.93;;
5058;SDS011;2548;52.050;11.036;2024-03-23T04:25:52;11.10;;;3.92;;
5058;SDS011;2548;52.050;11.036;2024-03-23T04:28:19;11.55;;;4.43;;
5058;SDS011;2548;52.050;11.036;2024-03-23T04:30:46;10.65;;;3.55;;
5058;SDS011;2548;52.050;11.036;2024-03-23T04:33:13;6.80;;;4.03;;
5058;SDS011;2548;52.050;11.036;2024-03-23T04:35:40;14.95;;;4.22;;
5058;SDS011;2548;52.050;11.036;2024-03-23T04:38:07;15.40;;;4.38;;
5058;SDS011;2548;52.050;11.036;2024-03-23T04:40:35;7.72;;;3.05;;
5058;SDS011;2548;52.050;11.036;2024-03-23T04:43:03;6.57;;;3.72;;
5058;SDS011;2548;52.050;11.036;2024-03-23T04:45:32;11.02;;;4.68;;
5058;SDS011;2548;52.050;11.036;2024-03-23T04:47:59;15.30;;;4.40;;
5058;SDS011;2548;52.050;11.036;2024-03-23T04:50:26;5.90;;;3.95;;
5058;SDS011;2548;52.050;11.036;2024-03-23T04:52:53;11.85;;;4.30;;
5058;SDS011;2548;52.050;11.036;2024-03-23T04:55:19;11.23;;;4.35;;
5058;SDS011;2548;52.050;11.036;2024-03-23T04:57:49;11.20;;;3.80;;
5058;SDS011;2548;52.050;11.036;2024-03-23T05:00:16;10.93;;;4.90;;
5058;SDS011;2548;52.050;11.036;2024-03-23T05:02:44;5.47;;;3.70;;
5058;SDS011;2548;52.050;11.036;2024-03-23T05:05:11;11.95;;;4.18;;
5058;SDS011;2548;52.050;11.036;2024-03-23T05:07:39;13.45;;;4.30;;
5058;SDS011;2548;52.050;11.036;2024-03-23T05:10:08;12.20;;;4.10;;
5058;SDS011;2548;52.050;11.036;2024-03-23T05:12:36;12.13;;;3.90;;
5058;SDS011;2548;52.050;11.036;2024-03-23T05:15:06;11.45;;;3.60;;
5058;SDS011;2548;52.050;11.036;2024-03-23T05:17:33;9.75;;;3.20;;
5058;SDS011;2548;52.050;11.036;2024-03-23T05:20:01;7.53;;;2.50;;
5058;SDS011;2548;52.050;11.036;2024-03-23T05:22:29;16.42;;;3.42;;
5058;SDS011;2548;52.050;11.036;2024-03-23T05:24:56;4.93;;;2.15;;
5058;SDS011;2548;52.050;11.036;2024-03-23T05:27:23;8.75;;;2.50;;
5058;SDS011;2548;52.050;11.036;2024-03-23T05:29:50;6.68;;;2.78;;
5058;SDS011;2548;52.050;11.036;2024-03-23T05:32:18;9.43;;;5.03;;
5058;SDS011;2548;52.050;11.036;2024-03-23T05:34:46;5.05;;;3.22;;
5058;SDS011;2548;52.050;11.036;2024-03-23T05:37:16;12.05;;;3.28;;
5058;SDS011;2548;52.050;11.036;2024-03-23T05:39:43;7.68;;;3.58;;
5058;SDS011;2548;52.050;11.036;2024-03-23T05:42:09;6.57;;;2.47;;
5058;SDS011;2548;52.050;11.036;2024-03-23T05:44:37;4.22;;;1.95;;
5058;SDS011;2548;52.050;11.036;2024-03-23T05:47:04;9.88;;;2.97;;
5058;SDS011;2548;52.050;11.036;2024-03-23T05:49:33;5.25;;;2.28;;
5058;SDS011;2548;52.050;11.036;2024-03-23T05:51:59;13.15;;;3.20;;
5058;SDS011;2548;52.050;11.036;2024-03-23T05:54:29;7.60;;;2.70;;
5058;SDS011;2548;52.050;11.036;2024-03-23T05:56:55;3.13;;;1.92;;
5058;SDS011;2548;52.050;11.036;2024-03-23T05:59:23;6.75;;;2.40;;
5058;SDS011;2548;52.050;11.036;2024-03-23T06:01:50;4.97;;;3.20;;
5058;SDS011;2548;52.050;11.036;2024-03-23T06:04:17;7.28;;;3.15;;
5058;SDS011;2548;52.050;11.036;2024-03-23T06:06:45;9.43;;;3.35;;
5058;SDS011;2548;52.050;11.036;2024-03-23T06:09:13;8.73;;;3.33;;
5058;SDS011;2548;52.050;11.036;2024-03-23T06:11:39;6.45;;;3.00;;
5058;SDS011;2548;52.050;11.036;2024-03-23T06:14:06;11.25;;;2.97;;
5058;SDS011;2548;52.050;11.036;2024-03-23T06:16:33;7.13;;;2.83;;
5058;SDS011;2548;52.050;11.036;2024-03-23T06:19:00;4.68;;;2.88;;
5058;SDS011;2548;52.050;11.036;2024-03-23T06:21:29;4.05;;;2.92;;
5058;SDS011;2548;52.050;11.036;2024-03-23T06:23:58;6.88;;;3.00;;
5058;SDS011;2548;52.050;11.036;2024-03-23T06:26:24;6.55;;;2.92;;
5058;SDS011;2548;52.050;11.036;2024-03-23T06:28:51;4.65;;;2.45;;
5058;SDS011;2548;52.050;11.036;2024-03-23T06:31:18;4.50;;;3.05;;
5058;SDS011;2548;52.050;11.036;2024-03-23T06:33:45;5.35;;;3.80;;
5058;SDS011;2548;52.050;11.036;2024-03-23T06:36:11;4.38;;;2.40;;
5058;SDS011;2548;52.050;11.036;2024-03-23T06:38:39;4.63;;;3.47;;
5058;SDS011;2548;52.050;11.036;2024-03-23T06:41:06;5.75;;;2.40;;
5058;SDS011;2548;52.050;11.036;2024-03-23T06:43:35;5.13;;;2.72;;
5058;SDS011;2548;52.050;11.036;2024-03-23T06:46:02;3.67;;;2.92;;
5058;SDS011;2548;52.050;11.036;2024-03-23T06:48:30;6.35;;;2.80;;
5058;SDS011;2548;52.050;11.036;2024-03-23T06:50:57;10.77;;;2.65;;
5058;SDS011;2548;52.050;11.036;2024-03-23T06:53:24;6.65;;;2.97;;
5058;SDS011;2548;52.050;11.036;2024-03-23T06:55:51;6.32;;;3.38;;
5058;SDS011;2548;52.050;11.036;2024-03-23T06:58:21;7.68;;;4.10;;
5058;SDS011;2548;52.050;11.036;2024-03-23T07:00:49;6.45;;;3.40;;
5058;SDS011;2548;52.050;11.036;2024-03-23T07:03:17;4.57;;;2.60;;
5058;SDS011;2548;52.050;11.036;2024-03-23T07:05:43;8.80;;;3.20;;
5058;SDS011;2548;52.050;11.036;2024-03-23T07:08:12;11.57;;;3.50;;
5058;SDS011;2548;52.050;11.036;2024-03-23T07:10:39;7.35;;;3.25;;
5058;SDS011;2548;52.050;11.036;2024-03-23T07:13:06;10.90;;;2.92;;
5058;SDS011;2548;52.050;11.036;2024-03-23T07:15:34;3.85;;;2.92;;
5058;SDS011;2548;52.050;11.036;2024-03-23T07:18:01;9.35;;;3.80;;
5058;SDS011;2548;52.050;11.036;2024-03-23T07:20:28;9.35;;;3.47;;
5058;SDS011;2548;52.050;11.036;2024-03-23T07:22:57;9.05;;;3.92;;
5058;SDS011;2548;52.050;11.036;2024-03-23T07:25:23;8.07;;;4.20;;
5058;SDS011;2548;52.050;11.036;2024-03-23T07:27:52;12.65;;;3.78;;
5058;SDS011;2548;52.050;11.036;2024-03-23T07:30:19;17.42;;;4.40;;
5058;SDS011;2548;52.050;11.036;2024-03-23T07:32:48;11.30;;;3.50;;
5058;SDS011;2548;52.050;11.036;2024-03-23T07:35:14;14.98;;;6.55;;
5058;SDS011;2548;52.050;11.036;2024-03-23T07:37:42;20.42;;;3.35;;
5058;SDS011;2548;52.050;11.036;2024-03-23T07:40:09;14.05;;;4.00;;
5058;SDS011;2548;52.050;11.036;2024-03-23T07:42:37;8.15;;;3.15;;
5058;SDS011;2548;52.050;11.036;2024-03-23T07:45:04;15.82;;;2.67;;
5058;SDS011;2548;52.050;11.036;2024-03-23T07:47:32;4.30;;;2.90;;
5058;SDS011;2548;52.050;11.036;2024-03-23T07:50:00;3.25;;;1.85;;
5058;SDS011;2548;52.050;11.036;2024-03-23T07:52:28;10.77;;;2.47;;
5058;SDS011;2548;52.050;11.036;2024-03-23T07:54:54;3.78;;;2.28;;
5058;SDS011;2548;52.050;11.036;2024-03-23T07:57:22;9.60;;;2.80;;
5058;SDS011;2548;52.050;11.036;2024-03-23T07:59:48;13.23;;;3.20;;
5058;SDS011;2548;52.050;11.036;2024-03-23T08:02:16;8.18;;;2.85;;
5058;SDS011;2548;52.050;11.036;2024-03-23T08:04:42;10.75;;;3.55;;
5058;SDS011;2548;52.050;11.036;2024-03-23T08:07:11;7.70;;;2.15;;
5058;SDS011;2548;52.050;11.036;2024-03-23T08:09:37;13.50;;;4.00;;
5058;SDS011;2548;52.050;11.036;2024-03-23T08:12:05;17.50;;;4.88;;
5058;SDS011;2548;52.050;11.036;2024-03-23T08:14:32;40.95;;;17.33;;
5058;SDS011;2548;52.050;11.036;2024-03-23T08:16:59;35.88;;;12.45;;
5058;SDS011;2548;52.050;11.036;2024-03-23T08:19:25;23.88;;;7.90;;
5058;SDS011;2548;52.050;11.036;2024-03-23T08:21:53;16.17;;;5.13;;
5058;SDS011;2548;52.050;11.036;2024-03-23T08:24:21;20.42;;;9.32;;
5058;SDS011;2548;52.050;11.036;2024-03-23T08:26:49;10.32;;;3.45;;
5058;SDS011;2548;52.050;11.036;2024-03-23T08:29:15;42.92;;;16.40;;
5058;SDS011;2548;52.050;11.036;2024-03-23T08:31:42;14.68;;;5.60;;
5058;SDS011;2548;52.050;11.036;2024-03-23T08:34:09;25.42;;;9.70;;
5058;SDS011;2548;52.050;11.036;2024-03-23T08:36:36;18.95;;;5.20;;
5058;SDS011;2548;52.050;11.036;2024-03-23T08:39:03;14.57;;;5.68;;
5058;SDS011;2548;52.050;11.036;2024-03-23T08:41:31;15.45;;;5.70;;
5058;SDS011;2548;52.050;11.036;2024-03-23T08:43:58;27.85;;;9.50;;
5058;SDS011;2548;52.050;11.036;2024-03-23T08:46:30;32.53;;;12.27;;
5058;SDS011;2548;52.050;11.036;2024-03-23T08:48:59;20.58;;;8.27;;
5058;SDS011;2548;52.050;11.036;2024-03-23T08:51:31;14.00;;;7.60;;
5058;SDS011;2548;52.050;11.036;2024-03-23T08:54:12;19.13;;;5.68;;
5058;SDS011;2548;52.050;11.036;2024-03-23T08:56:40;8.13;;;2.53;;
5058;SDS011;2548;52.050;11.036;2024-03-23T08:59:07;8.90;;;3.10;;
5058;SDS011;2548;52.050;11.036;2024-03-23T09:01:35;7.63;;;4.47;;
5058;SDS011;2548;52.050;11.036;2024-03-23T09:04:01;10.55;;;3.90;;
5058;SDS011;2548;52.050;11.036;2024-03-23T09:06:28;9.25;;;5.28;;
5058;SDS011;2548;52.050;11.036;2024-03-23T09:08:55;9.35;;;2.78;;
5058;SDS011;2548;52.050;11.036;2024-03-23T09:11:22;8.13;;;3.25;;
5058;SDS011;2548;52.050;11.036;2024-03-23T09:13:50;11.25;;;3.00;;
5058;SDS011;2548;52.050;11.036;2024-03-23T09:16:18;6.40;;;3.25;;
5058;SDS011;2548;52.050;11.036;2024-03-23T09:18:44;6.82;;;3.25;;
5058;SDS011;2548;52.050;11.036;2024-03-23T09:21:12;12.50;;;3.88;;
5058;SDS011;2548;52.050;11.036;2024-03-23T09:23:40;8.98;;;3.33;;
5058;SDS011;2548;52.050;11.036;2024-03-23T09:26:08;8.60;;;2.85;;
5058;SDS011;2548;52.050;11.036;2024-03-23T09:28:36;24.90;;;4.95;;
5058;SDS011;2548;52.050;11.036;2024-03-23T09:31:04;6.82;;;2.50;;
5058;SDS011;2548;52.050;11.036;2024-03-23T09:33:32;7.65;;;3.17;;
5058;SDS011;2548;52.050;11.036;2024-03-23T09:36:02;14.60;;;3.50;;
5058;SDS011;2548;52.050;11.036;2024-03-23T09:38:30;12.57;;;3.30;;
5058;SDS011;2548;52.050;11.036;2024-03-23T09:40:57;21.08;;;7.90;;
5058;SDS011;2548;52.050;11.036;2024-03-23T09:43:25;16.33;;;6.68;;
5058;SDS011;2548;52.050;11.036;2024-03-23T09:45:51;9.15;;;3.65;;
5058;SDS011;2548;52.050;11.036;2024-03-23T09:48:21;9.57;;;4.40;;
5058;SDS011;2548;52.050;11.036;2024-03-23T09:50:48;7.13;;;3.55;;
5058;SDS011;2548;52.050;11.036;2024-03-23T09:53:15;14.95;;;3.58;;
5058;SDS011;2548;52.050;11.036;2024-03-23T09:55:42;10.63;;;4.50;;
5058;SDS011;2548;52.050;11.036;2024-03-23T09:58:12;25.88;;;3.80;;
5058;SDS011;2548;52.050;11.036;2024-03-23T10:00:39;15.10;;;2.88;;
5058;SDS011;2548;52.050;11.036;2024-03-23T10:03:07;10.35;;;3.92;;
5058;SDS011;2548;52.050;11.036;2024-03-23T10:05:35;12.40;;;3.00;;
5058;SDS011;2548;52.050;11.036;2024-03-23T10:08:16;17.38;;;2.88;;
5058;SDS011;2548;52.050;11.036;2024-03-23T10:10:44;8.63;;;2.60;;
5058;SDS011;2548;52.050;11.036;2024-03-23T10:13:23;17.98;;;3.13;;
5058;SDS011;2548;52.050;11.036;2024-03-23T10:15:59;12.18;;;3.45;;
5058;SDS011;2548;52.050;11.036;2024-03-23T10:18:27;6.45;;;3.08;;
5058;SDS011;2548;52.050;11.036;2024-03-23T10:21:07;12.57;;;3.08;;
5058;SDS011;2548;52.050;11.036;2024-03-23T10:23:36;10.07;;;3.35;;
5058;SDS011;2548;52.050;11.036;2024-03-23T10:26:14;18.60;;;3.83;;
5058;SDS011;2548;52.050;11.036;2024-03-23T10:28:53;12.88;;;4.00;;
5058;SDS011;2548;52.050;11.036;2024-03-23T10:31:20;10.30;;;4.07;;
5058;SDS011;2548;52.050;11.036;2024-03-23T10:33:48;7.72;;;3.33;;
5058;SDS011;2548;52.050;11.036;2024-03-23T10:36:16;2.70;;;2.50;;
5058;SDS011;2548;52.050;11.036;2024-03-23T10:38:46;10.38;;;3.38;;
5058;SDS011;2548;52.050;11.036;2024-03-23T10:41:13;7.53;;;3.28;;
5058;SDS011;2548;52.050;11.036;2024-03-23T10:43:40;7.45;;;3.17;;
5058;SDS011;2548;52.050;11.036;2024-03-23T10:46:10;6.30;;;2.72;;
5058;SDS011;2548;52.050;11.036;2024-03-23T10:48:38;10.55;;;3.78;;
5058;SDS011;2548;52.050;11.036;2024-03-23T10:51:04;8.10;;;3.28;;
5058;SDS011;2548;52.050;11.036;2024-03-23T10:53:35;8.05;;;3.63;;
5058;SDS011;2548;52.050;11.036;2024-03-23T10:56:03;9.45;;;3.53;;
5058;SDS011;2548;52.050;11.036;2024-03-23T10:58:33;6.60;;;3.38;;
5058;SDS011;2548;52.050;11.036;2024-03-23T11:01:03;15.95;;;4.45;;
5058;SDS011;2548;52.050;11.036;2024-03-23T11:03:31;7.40;;;3.17;;
5058;SDS011;2548;52.050;11.036;2024-03-23T11:05:59;11.23;;;4.07;;
5058;SDS011;2548;52.050;11.036;2024-03-23T11:08:30;9.20;;;3.78;;
5058;SDS011;2548;52.050;11.036;2024-03-23T11:11:15;13.43;;;4.45;;
5058;SDS011;2548;52.050;11.036;2024-03-23T11:13:44;10.77;;;5.07;;
5058;SDS011;2548;52.050;11.036;2024-03-23T11:16:16;14.60;;;4.65;;
5058;SDS011;2548;52.050;11.036;2024-03-23T11:18:44;6.28;;;3.70;;
5058;SDS011;2548;52.050;11.036;2024-03-23T11:21:11;11.40;;;3.90;;
5058;SDS011;2548;52.050;11.036;2024-03-23T11:24:16;6.57;;;2.40;;
5058;SDS011;2548;52.050;11.036;2024-03-23T11:26:45;5.00;;;2.40;;
5058;SDS011;2548;52.050;11.036;2024-03-23T11:29:13;6.05;;;3.08;;
5058;SDS011;2548;52.050;11.036;2024-03-23T11:31:45;8.13;;;2.90;;
5058;SDS011;2548;52.050;11.036;2024-03-23T11:34:13;5.70;;;3.05;;
5058;SDS011;2548;52.050;11.036;2024-03-23T11:36:41;4.65;;;2.42;;
5058;SDS011;2548;52.050;11.036;2024-03-23T11:39:12;12.13;;;3.65;;
5058;SDS011;2548;52.050;11.036;2024-03-23T11:41:48;11.02;;;3.15;;
5058;SDS011;2548;52.050;11.036;2024-03-23T11:44:17;9.90;;;3.72;;
5058;SDS011;2548;52.050;11.036;2024-03-23T11:46:44;10.18;;;3.78;;
5058;SDS011;2548;52.050;11.036;2024-03-23T11:49:21;13.85;;;4.95;;
5058;SDS011;2548;52.050;11.036;2024-03-23T11:51:48;15.32;;;4.68;;
5058;SDS011;2548;52.050;11.036;2024-03-23T11:54:16;16.27;;;4.28;;
5058;SDS011;2548;52.050;11.036;2024-03-23T11:56:57;14.57;;;4.55;;
5058;SDS011;2548;52.050;11.036;2024-03-23T11:59:32;17.92;;;4.70;;
5058;SDS011;2548;52.050;11.036;2024-03-23T12:01:59;9.88;;;4.18;;
5058;SDS011;2548;52.050;11.036;2024-03-23T12:04:28;7.28;;;3.30;;
5058;SDS011;2548;52.050;11.036;2024-03-23T12:07:11;18.83;;;4.28;;
5058;SDS011;2548;52.050;11.036;2024-03-23T12:09:39;9.80;;;3.45;;
5058;SDS011;2548;52.050;11.036;2024-03-23T12:12:13;11.45;;;3.88;;
5058;SDS011;2548;52.050;11.036;2024-03-23T12:14:42;11.30;;;3.25;;
5058;SDS011;2548;52.050;11.036;2024-03-23T12:17:09;10.95;;;3.90;;
5058;SDS011;2548;52.050;11.036;2024-03-23T12:19:37;6.40;;;3.20;;
5058;SDS011;2548;52.050;11.036;2024-03-23T12:22:04;4.43;;;3.10;;
5058;SDS011;2548;52.050;11.036;2024-03-23T12:24:32;11.60;;;3.75;;
5058;SDS011;2548;52.050;11.036;2024-03-23T12:27:00;10.23;;;3.00;;
5058;SDS011;2548;52.050;11.036;2024-03-23T12:29:30;5.75;;;3.60;;
5058;SDS011;2548;52.050;11.036;2024-03-23T12:31:59;10.35;;;3.55;;
5058;SDS011;2548;52.050;11.036;2024-03-23T12:34:27;3.42;;;2.25;;
5058;SDS011;2548;52.050;11.036;2024-03-23T12:36:53;6.53;;;2.78;;
5058;SDS011;2548;52.050;11.036;2024-03-23T12:39:21;7.55;;;2.20;;
5058;SDS011;2548;52.050;11.036;2024-03-23T12:41:47;1.38;;;1.27;;
5058;SDS011;2548;52.050;11.036;2024-03-23T12:44:15;6.13;;;3.92;;
5058;SDS011;2548;52.050;11.036;2024-03-23T12:46:43;30.92;;;9.77;;
5058;SDS011;2548;52.050;11.036;2024-03-23T12:49:11;32.40;;;14.50;;
5058;SDS011;2548;52.050;11.036;2024-03-23T12:51:38;14.10;;;5.10;;
5058;SDS011;2548;52.050;11.036;2024-03-23T12:54:06;8.18;;;2.35;;
5058;SDS011;2548;52.050;11.036;2024-03-23T12:56:32;4.75;;;2.78;;
5058;SDS011;2548;52.050;11.036;2024-03-23T12:58:59;4.10;;;2.50;;
5058;SDS011;2548;52.050;11.036;2024-03-23T13:01:26;7.70;;;3.63;;
5058;SDS011;2548;52.050;11.036;2024-03-23T13:03:55;5.95;;;2.95;;
5058;SDS011;2548;52.050;11.036;2024-03-23T13:06:21;3.30;;;3.00;;
5058;SDS011;2548;52.050;11.036;2024-03-23T13:08:49;9.35;;;4.70;;
5058;SDS011;2548;52.050;11.036;2024-03-23T13:11:15;3.42;;;2.30;;
5058;SDS011;2548;52.050;11.036;2024-03-23T13:13:43;5.47;;;2.78;;
5058;SDS011;2548;52.050;11.036;2024-03-23T13:16:10;5.97;;;4.50;;
5058;SDS011;2548;52.050;11.036;2024-03-23T13:18:37;2.95;;;2.75;;
5058;SDS011;2548;52.050;11.036;2024-03-23T13:21:05;3.50;;;3.20;;
5058;SDS011;2548;52.050;11.036;2024-03-23T13:23:33;3.70;;;2.80;;
5058;SDS011;2548;52.050;11.036;2024-03-23T13:26:01;2.88;;;2.60;;
5058;SDS011;2548;52.050;11.036;2024-03-23T13:28:29;2.20;;;2.00;;
5058;SDS011;2548;52.050;11.036;2024-03-23T13:30:56;1.80;;;1.70;;
5058;SDS011;2548;52.050;11.036;2024-03-23T13:33:24;2.75;;;1.90;;
5058;SDS011;2548;52.050;11.036;2024-03-23T13:35:51;2.33;;;2.03;;
5058;SDS011;2548;52.050;11.036;2024-03-23T13:38:20;3.63;;;2.30;;
5058;SDS011;2548;52.050;11.036;2024-03-23T13:40:50;7.43;;;2.13;;
5058;SDS011;2548;52.050;11.036;2024-03-23T13:43:18;1.98;;;1.60;;
5058;SDS011;2548;52.050;11.036;2024-03-23T13:45:45;2.05;;;1.75;;
5058;SDS011;2548;52.050;11.036;2024-03-23T13:48:13;3.92;;;1.90;;
5058;SDS011;2548;52.050;11.036;2024-03-23T13:50:40;5.35;;;2.42;;
5058;SDS011;2548;52.050;11.036;2024-03-23T13:53:08;3.92;;;2.00;;
5058;SDS011;2548;52.050;11.036;2024-03-23T13:55:36;2.65;;;2.05;;
5058;SDS011;2548;52.050;11.036;2024-03-23T13:58:03;2.53;;;1.88;;
5058;SDS011;2548;52.050;11.036;2024-03-23T14:00:30;3.10;;;1.40;;
5058;SDS011;2548;52.050;11.036;2024-03-23T14:02:58;2.30;;;1.75;;
5058;SDS011;2548;52.050;11.036;2024-03-23T14:05:24;7.32;;;3.80;;
5058;SDS011;2548;52.050;11.036;2024-03-23T14:07:52;2.78;;;2.40;;
5058;SDS011;2548;52.050;11.036;2024-03-23T14:10:18;12.20;;;8.48;;
5058;SDS011;2548;52.050;11.036;2024-03-23T14:12:48;5.63;;;4.43;;
5058;SDS011;2548;52.050;11.036;2024-03-23T14:15:14;4.20;;;3.90;;
5058;SDS011;2548;52.050;11.036;2024-03-23T14:17:42;4.82;;;4.30;;
5058;SDS011;2548;52.050;11.036;2024-03-23T14:20:08;1.65;;;1.55;;
5058;SDS011;2548;52.050;11.036;2024-03-23T14:22:37;5.90;;;3.72;;
5058;SDS011;2548;52.050;11.036;2024-03-23T14:25:04;3.40;;;3.17;;
5058;SDS011;2548;52.050;11.036;2024-03-23T14:27:32;3.30;;;3.10;;
5058;SDS011;2548;52.050;11.036;2024-03-23T14:30:04;7.20;;;4.45;;
5058;SDS011;2548;52.050;11.036;2024-03-23T14:32:33;3.78;;;3.58;;
5058;SDS011;2548;52.050;11.036;2024-03-23T14:35:00;3.60;;;2.63;;
5058;SDS011;2548;52.050;11.036;2024-03-23T14:37:27;9.52;;;3.53;;
5058;SDS011;2548;52.050;11.036;2024-03-23T14:39:55;7.15;;;3.42;;
5058;SDS011;2548;52.050;11.036;2024-03-23T14:42:22;3.45;;;3.15;;
5058;SDS011;2548;52.050;11.036;2024-03-23T14:44:49;4.32;;;3.45;;
5058;SDS011;2548;52.050;11.036;2024-03-23T14:47:18;2.70;;;2.45;;
5058;SDS011;2548;52.050;11.036;2024-03-23T14:49:46;2.47;;;2.30;;
5058;SDS011;2548;52.050;11.036;2024-03-23T14:52:16;7.03;;;2.60;;
5058;SDS011;2548;52.050;11.036;2024-03-23T14:54:42;2.83;;;2.03;;
5058;SDS011;2548;52.050;11.036;2024-03-23T14:57:11;3.20;;;2.85;;
5058;SDS011;2548;52.050;11.036;2024-03-23T14:59:37;2.53;;;2.33;;
5058;SDS011;2548;52.050;11.036;2024-03-23T15:02:06;2.30;;;2.20;;
5058;SDS011;2548;52.050;11.036;2024-03-23T15:04:34;2.20;;;2.10;;
5058;SDS011;2548;52.050;11.036;2024-03-23T15:07:02;2.47;;;2.17;;
5058;SDS011;2548;52.050;11.036;2024-03-23T15:09:29;4.00;;;2.45;;
5058;SDS011;2548;52.050;11.036;2024-03-23T15:11:56;14.32;;;6.18;;
5058;SDS011;2548;52.050;11.036;2024-03-23T15:14:23;29.50;;;14.52;;
5058;SDS011;2548;52.050;11.036;2024-03-23T15:16:51;4.40;;;4.00;;
5058;SDS011;2548;52.050;11.036;2024-03-23T15:19:18;6.15;;;3.70;;
5058;SDS011;2548;52.050;11.036;2024-03-23T15:21:47;9.50;;;6.10;;
5058;SDS011;2548;52.050;11.036;2024-03-23T15:24:13;9.52;;;6.53;;
5058;SDS011;2548;52.050;11.036;2024-03-23T15:26:41;6.68;;;4.13;;
5058;SDS011;2548;52.050;11.036;2024-03-23T15:29:08;4.30;;;2.40;;
5058;SDS011;2548;52.050;11.036;2024-03-23T15:31:38;3.72;;;2.03;;
5058;SDS011;2548;52.050;11.036;2024-03-23T15:34:04;8.10;;;4.30;;
5058;SDS011;2548;52.050;11.036;2024-03-23T15:36:35;5.10;;;2.75;;
5058;SDS011;2548;52.050;11.036;2024-03-23T15:39:05;4.40;;;2.47;;
5058;SDS011;2548;52.050;11.036;2024-03-23T15:41:33;4.57;;;3.45;;
5058;SDS011;2548;52.050;11.036;2024-03-23T15:44:01;3.15;;;2.95;;
5058;SDS011;2548;52.050;11.036;2024-03-23T15:46:28;5.65;;;2.85;;
5058;SDS011;2548;52.050;11.036;2024-03-23T15:48:55;12.43;;;5.65;;
5058;SDS011;2548;52.050;11.036;2024-03-23T15:51:23;10.57;;;4.30;;
5058;SDS011;2548;52.050;11.036;2024-03-23T15:53:49;9.18;;;3.03;;